Time;durP1;ratioP1;P1;durP2;ratioP2;P2;SDS_P1;SDS_P2;PMS_P1;PMS_P2;Temp;Humidity;BMP_temperature;BMP_pressure;BME280_temperature;BME280_humidity;BME280_pressure;Samples;Min_cycle;Max_cycle;Signal;HPM_P1;HPM_P2
2023/03/22 00:03:35;;;;;;;11.40;8.80;;;22.30;64.30;;;;;;222314;1262;22541;-48
2023/03/22 00:08:40;;;;;;;12.30;8.90;;;22.30;63.90;;;;;;222415;1254;23897;-51
2023/03/22 00:13:45;;;;;;;12.70;8.30;;;22.30;63.50;;;;;;222300;1262;22513;-48
2023/03/22 00:18:50;;;;;;;12.10;8.60;;;22.20;63.90;;;;;;222163;1254;22642;-45
2023/03/22 00:23:54;;;;;;;9.60;8.30;;;22.20;64.00;;;;;;229390;1256;23139;-47
2023/03/22 00:28:58;;;;;;;9.10;8.00;;;22.40;64.40;;;;;;228417;1262;23899;-49
2023/03/22 00:34:02;;;;;;;10.40;8.10;;;22.60;63.80;;;;;;221928;1262;24361;-48
2023/03/22 00:39:07;;;;;;;9.50;8.20;;;22.60;63.70;;;;;;230364;1261;22146;-51
2023/03/22 00:44:11;;;;;;;8.90;8.00;;;22.70;64.10;;;;;;222398;1257;24335;-50
2023/03/22 00:49:15;;;;;;;8.70;7.70;;;22.70;63.60;;;;;;226332;1262;22507;-49
2023/03/22 00:54:20;;;;;;;10.20;7.70;;;22.70;63.70;;;;;;220939;1269;22665;-53
2023/03/22 00:59:24;;;;;;;9.90;8.90;;;22.60;63.60;;;;;;220692;1263;24256;-49
2023/03/22 01:04:30;;;;;;;10.10;7.20;;;22.60;63.70;;;;;;220964;1267;22908;-48
2023/03/22 01:09:34;;;;;;;8.20;7.40;;;22.50;63.30;;;;;;220988;1260;23885;-47
2023/03/22 01:14:39;;;;;;;8.60;7.20;;;22.50;63.40;;;;;;222411;1255;25458;-49
2023/03/22 01:19:43;;;;;;;8.40;7.50;;;22.50;63.30;;;;;;222157;1262;25469;-48
2023/03/22 01:24:48;;;;;;;8.70;7.80;;;22.50;63.10;;;;;;222172;1260;22517;-48
2023/03/22 01:29:52;;;;;;;9.50;7.80;;;22.50;63.20;;;;;;222165;1256;25233;-49
2023/03/22 01:34:56;;;;;;;8.80;7.80;;;22.50;63.30;;;;;;221945;1262;22544;-45
2023/03/22 01:40:05;;;;;;;9.00;8.00;;;22.50;63.10;;;;;;228041;1262;22472;-47
2023/03/22 01:45:12;;;;;;;8.80;7.90;;;22.80;62.50;;;;;;227183;1255;22510;-49
2023/03/22 01:50:18;;;;;;;8.50;7.70;;;22.90;62.30;;;;;;225721;1265;22785;-49
2023/03/22 01:55:24;;;;;;;9.00;7.70;;;22.80;62.40;;;;;;222133;1262;24237;-46
2023/03/22 02:00:51;;;;;;;9.00;7.20;;;22.70;62.90;;;;;;222237;1260;22631;-48
2023/03/22 02:06:01;;;;;;;8.40;7.50;;;22.70;63.80;;;;;;222258;1253;22528;-48
2023/03/22 02:11:06;;;;;;;7.80;6.90;;;22.70;63.40;;;;;;222301;1262;25270;-47
2023/03/22 02:16:45;;;;;;;8.00;7.20;;;22.70;63.90;;;;;;222259;1258;22639;-49
2023/03/22 02:22:08;;;;;;;7.90;7.10;;;22.60;63.30;;;;;;222274;1262;23890;-48
2023/03/22 02:27:21;;;;;;;8.00;7.10;;;22.70;62.90;;;;;;222185;1260;22537;-50
2023/03/22 02:32:37;;;;;;;6.90;6.30;;;22.70;62.50;;;;;;221806;1246;24334;-48
2023/03/22 02:38:06;;;;;;;7.60;6.60;;;22.70;62.40;;;;;;222105;1255;24233;-48
2023/03/22 02:43:29;;;;;;;8.00;7.30;;;22.70;62.70;;;;;;222204;1255;24288;-47
2023/03/22 02:48:43;;;;;;;8.20;7.20;;;22.70;62.90;;;;;;222311;1262;24137;-46
2023/03/22 02:54:03;;;;;;;7.80;7.00;;;22.80;62.60;;;;;;222359;1256;22527;-47
2023/03/22 02:59:10;;;;;;;7.90;6.50;;;22.80;63.00;;;;;;221926;1253;24228;-46
2023/03/22 03:04:23;;;;;;;6.90;6.10;;;22.80;62.20;;;;;;222296;1255;25285;-45
2023/03/22 03:09:30;;;;;;;6.40;5.80;;;22.90;62.10;;;;;;222197;1260;22522;-47
2023/03/22 03:14:35;;;;;;;7.60;6.80;;;22.90;62.50;;;;;;222344;1254;22590;-47
2023/03/22 03:20:07;;;;;;;6.40;5.80;;;22.80;62.10;;;;;;222153;1265;25348;-55
2023/03/22 03:25:28;;;;;;;6.90;6.20;;;22.70;62.20;;;;;;222166;1255;22570;-49
2023/03/22 03:30:39;;;;;;;7.70;7.00;;;22.70;62.30;;;;;;222231;1262;23191;-48
2023/03/22 03:35:50;;;;;;;6.70;6.10;;;22.60;62.00;;;;;;223281;1256;22528;-49
2023/03/22 03:40:59;;;;;;;7.00;6.40;;;22.60;62.40;;;;;;222037;1262;25236;-51
2023/03/22 03:46:04;;;;;;;6.60;6.00;;;22.60;62.00;;;;;;222339;1256;22778;-49
2023/03/22 03:51:08;;;;;;;6.60;6.00;;;22.60;62.00;;;;;;222458;1262;24228;-47
2023/03/22 03:56:12;;;;;;;6.40;5.80;;;22.50;62.40;;;;;;222291;1262;22765;-50
2023/03/22 04:01:22;;;;;;;6.80;6.20;;;22.50;62.10;;;;;;222337;1269;23087;-50
2023/03/22 04:06:33;;;;;;;7.00;6.40;;;22.40;62.00;;;;;;222241;1255;22626;-55
2023/03/22 04:11:43;;;;;;;6.60;6.00;;;22.50;62.10;;;;;;222276;1255;22546;-51
2023/03/22 04:16:48;;;;;;;7.40;6.70;;;22.40;62.00;;;;;;222409;1262;24164;-49
2023/03/22 04:21:54;;;;;;;6.60;6.00;;;22.40;61.60;;;;;;222211;1248;24183;-48
2023/03/22 04:26:58;;;;;;;6.00;5.50;;;22.40;61.60;;;;;;222355;1262;22520;-50
2023/03/22 04:32:32;;;;;;;6.80;6.20;;;22.30;62.30;;;;;;220992;1259;22637;-49
2023/03/22 04:37:36;;;;;;;6.70;5.60;;;22.30;61.80;;;;;;221105;1262;22521;-50
2023/03/22 04:43:02;;;;;;;6.70;6.10;;;22.30;61.80;;;;;;221259;1267;22603;-51
2023/03/22 04:48:28;;;;;;;7.30;6.60;;;22.30;62.00;;;;;;221530;1253;23929;-51
2023/03/22 04:53:37;;;;;;;6.50;5.90;;;22.30;61.70;;;;;;222017;1262;23939;-51
2023/03/22 04:58:43;;;;;;;6.40;5.80;;;22.20;61.50;;;;;;222165;1254;24388;-51
2023/03/22 05:03:48;;;;;;;6.70;6.10;;;22.10;61.60;;;;;;222182;1255;24229;-49
2023/03/22 05:08:55;;;;;;;6.50;5.90;;;22.20;61.80;;;;;;222426;1265;24363;-51
2023/03/22 05:13:59;;;;;;;6.30;5.80;;;22.10;61.30;;;;;;222053;1265;22521;-51
2023/03/22 05:19:05;;;;;;;6.70;6.10;;;22.00;61.70;;;;;;222116;1263;22648;-51
2023/03/22 05:24:10;;;;;;;6.50;5.90;;;22.00;61.70;;;;;;221965;1251;23908;-54
2023/03/22 05:29:14;;;;;;;5.90;5.40;;;22.00;62.00;;;;;;222241;1255;22572;-51
2023/03/22 05:34:47;;;;;;;6.10;5.50;;;22.00;61.80;;;;;;222331;1258;22780;-52
2023/03/22 05:40:09;;;;;;;6.60;5.90;;;21.90;61.70;;;;;;222282;1265;25466;-50
2023/03/22 05:45:17;;;;;;;6.20;5.60;;;22.00;61.80;;;;;;222354;1262;22711;-47
2023/03/22 05:50:25;;;;;;;6.60;6.10;;;21.90;61.90;;;;;;222083;1255;25397;-51
2023/03/22 05:55:30;;;;;;;6.30;5.70;;;21.90;62.30;;;;;;222294;1265;22557;-51
2023/03/22 06:00:37;;;;;;;6.30;5.70;;;21.90;61.60;;;;;;222679;1257;22520;-50
2023/03/22 06:06:14;;;;;;;6.60;6.00;;;21.90;61.70;;;;;;221928;1253;22636;-45
2023/03/22 06:11:27;;;;;;;6.50;6.00;;;21.90;61.30;;;;;;222584;1253;23914;-46
2023/03/22 06:16:31;;;;;;;5.50;5.10;;;21.90;61.40;;;;;;222088;1263;25234;-50
2023/03/22 06:21:36;;;;;;;6.30;5.70;;;21.90;61.50;;;;;;222234;1255;24308;-48
2023/03/22 06:26:40;;;;;;;6.70;5.70;;;21.90;61.30;;;;;;222245;1262;184076;-49
2023/03/22 06:31:44;;;;;;;6.00;5.40;;;21.80;61.30;;;;;;222398;1256;23597;-51
2023/03/22 06:36:49;;;;;;;6.00;5.50;;;21.90;61.80;;;;;;222435;1262;22775;-48
2023/03/22 06:42:15;;;;;;;6.10;5.50;;;21.90;63.80;;;;;;222460;1260;22505;-44
2023/03/22 06:47:20;;;;;;;6.70;5.80;;;22.00;62.70;;;;;;222291;1255;22513;-42
2023/03/22 06:52:53;;;;;;;6.30;5.50;;;22.20;62.10;;;;;;222257;1256;22520;-43
2023/03/22 06:58:01;;;;;;;6.10;5.60;;;22.30;62.30;;;;;;222264;1261;22517;-46
2023/03/22 07:03:06;;;;;;;5.50;5.10;;;22.40;62.40;;;;;;222431;1262;22528;-42
2023/03/22 07:08:31;;;;;;;8.70;5.30;;;22.40;62.10;;;;;;222281;1262;24225;-45
2023/03/22 07:13:35;;;;;;;5.70;5.20;;;22.50;61.80;;;;;;222399;1263;22626;-41
2023/03/22 07:18:44;;;;;;;6.90;5.40;;;22.60;62.20;;;;;;222413;1261;22629;-43
2023/03/22 07:23:49;;;;;;;6.80;5.10;;;22.60;62.10;;;;;;222305;1265;22516;-42
2023/03/22 07:28:56;;;;;;;7.50;5.10;;;22.60;62.30;;;;;;222355;1262;25255;-42
2023/03/22 07:34:04;;;;;;;5.80;5.10;;;22.60;62.00;;;;;;222030;1262;22513;-42
2023/03/22 07:39:27;;;;;;;5.20;4.70;;;22.60;61.90;;;;;;222239;1256;25334;-40
2023/03/22 07:44:32;;;;;;;6.70;5.10;;;22.70;61.70;;;;;;222004;1263;24334;-41
2023/03/22 07:49:56;;;;;;;7.00;5.00;;;22.60;61.50;;;;;;222415;1265;23149;-41
2023/03/22 07:55:05;;;;;;;9.80;5.50;;;22.60;61.80;;;;;;222332;1256;24231;-41
2023/03/22 08:00:10;;;;;;;10.80;5.30;;;22.60;62.50;;;;;;222400;1269;25317;-41
2023/03/22 08:05:42;;;;;;;12.00;5.20;;;22.70;62.10;;;;;;222183;1262;22512;-48
2023/03/22 08:10:50;;;;;;;5.90;5.30;;;22.70;61.90;;;;;;222410;1262;25489;-41
2023/03/22 08:15:54;;;;;;;9.20;5.40;;;22.70;61.90;;;;;;222348;1256;25498;-40
2023/03/22 08:21:00;;;;;;;10.50;6.50;;;22.80;61.40;;;;;;222315;1255;24365;-43
2023/03/22 08:26:06;;;;;;;7.60;6.90;;;22.70;59.80;;;;;;222133;1263;24224;-39
2023/03/22 08:31:15;;;;;;;11.00;6.60;;;22.60;60.10;;;;;;221908;1269;22495;-40
2023/03/22 08:36:24;;;;;;;8.20;6.30;;;22.60;59.80;;;;;;222119;1262;24067;-40
2023/03/22 08:41:34;;;;;;;8.80;6.20;;;22.60;59.80;;;;;;222232;1265;22510;-40
2023/03/22 08:46:39;;;;;;;10.10;5.60;;;22.70;60.00;;;;;;222247;1265;24231;-40
2023/03/22 08:51:43;;;;;;;9.50;5.60;;;22.60;59.70;;;;;;222185;1266;22604;-41
2023/03/22 08:56:52;;;;;;;5.60;5.10;;;22.60;59.90;;;;;;222109;1269;25262;-39
2023/03/22 09:02:06;;;;;;;7.00;6.40;;;22.60;59.90;;;;;;222391;1263;22509;-47
2023/03/22 09:07:11;;;;;;;5.90;5.40;;;22.70;59.80;;;;;;222223;1263;25264;-46
2023/03/22 09:12:17;;;;;;;8.80;5.40;;;22.70;59.80;;;;;;222326;1263;25388;-44
2023/03/22 09:17:21;;;;;;;6.20;5.60;;;22.70;59.70;;;;;;222314;1254;22594;-44
2023/03/22 09:22:25;;;;;;;8.20;4.90;;;22.70;59.20;;;;;;222303;1262;25379;-43
2023/03/22 09:27:30;;;;;;;6.40;5.80;;;22.70;59.50;;;;;;222389;1253;22505;-41
2023/03/22 09:32:34;;;;;;;5.60;5.10;;;22.80;59.50;;;;;;222338;1255;23147;-44
2023/03/22 09:37:39;;;;;;;6.30;4.90;;;22.90;59.50;;;;;;222265;1262;25326;-43
2023/03/22 09:42:47;;;;;;;4.60;4.20;;;23.00;59.60;;;;;;222334;1263;22670;-49
2023/03/22 09:47:54;;;;;;;5.70;4.60;;;22.90;59.20;;;;;;222182;1253;24074;-44
2023/03/22 09:52:59;;;;;;;5.00;4.60;;;23.00;59.20;;;;;;222469;1248;22552;-44
2023/03/22 09:58:15;;;;;;;7.50;5.10;;;22.90;59.50;;;;;;222265;1266;25480;-47
2023/03/22 10:03:41;;;;;;;5.20;4.20;;;22.90;59.50;;;;;;222305;1262;24184;-46
2023/03/22 10:09:03;;;;;;;5.40;4.90;;;22.90;59.50;;;;;;222289;1265;22516;-45
2023/03/22 10:14:22;;;;;;;4.90;4.40;;;22.90;59.50;;;;;;222351;1254;22540;-45
2023/03/22 10:20:08;;;;;;;5.50;4.80;;;23.00;59.70;;;;;;222433;1253;25347;-47
2023/03/22 10:25:18;;;;;;;5.90;5.40;;;22.90;59.60;;;;;;222068;1262;22564;-42
2023/03/22 10:30:23;;;;;;;5.10;4.40;;;22.90;60.40;;;;;;222139;1264;24187;-45
2023/03/22 10:35:29;;;;;;;5.20;4.70;;;22.90;59.80;;;;;;222072;1255;24292;-44
2023/03/22 10:40:35;;;;;;;4.70;4.30;;;23.00;60.00;;;;;;222395;1262;22556;-45
2023/03/22 10:45:39;;;;;;;4.80;4.50;;;23.00;60.10;;;;;;222275;1269;22974;-45
2023/03/22 10:50:44;;;;;;;4.20;3.90;;;23.00;59.70;;;;;;222396;1260;24204;-46
2023/03/22 10:55:48;;;;;;;6.50;4.20;;;23.00;59.60;;;;;;222399;1253;22779;-46
2023/03/22 11:00:55;;;;;;;4.80;4.00;;;23.00;59.60;;;;;;222165;1263;23022;-45
2023/03/22 11:06:12;;;;;;;4.10;3.80;;;23.00;59.50;;;;;;222424;1264;24388;-46
2023/03/22 11:11:23;;;;;;;6.90;4.10;;;23.10;59.50;;;;;;222278;1261;25294;-45
2023/03/22 11:16:29;;;;;;;4.70;3.60;;;23.10;59.40;;;;;;222407;1263;24376;-47
2023/03/22 11:21:33;;;;;;;4.50;4.10;;;23.20;59.40;;;;;;222466;1262;25380;-46
2023/03/22 11:26:37;;;;;;;4.40;4.00;;;23.20;59.30;;;;;;222311;1262;25437;-42
2023/03/22 11:31:58;;;;;;;4.10;3.80;;;23.20;59.20;;;;;;222363;1262;22520;-44
2023/03/22 11:37:07;;;;;;;4.00;3.70;;;23.20;59.60;;;;;;222270;1263;22517;-43
2023/03/22 11:42:19;;;;;;;6.10;4.20;;;23.30;59.10;;;;;;222383;1266;22508;-44
2023/03/22 11:47:26;;;;;;;4.20;3.90;;;23.30;59.20;;;;;;222303;1263;23146;-44
2023/03/22 11:52:31;;;;;;;4.50;4.20;;;23.20;59.80;;;;;;222425;1263;24216;-46
2023/03/22 11:57:36;;;;;;;4.60;4.10;;;23.30;58.90;;;;;;222151;1266;22822;-45
2023/03/22 12:02:48;;;;;;;4.60;4.00;;;23.40;58.90;;;;;;222159;1255;24266;-44
2023/03/22 12:08:02;;;;;;;4.10;3.80;;;23.30;59.00;;;;;;222149;1259;22501;-45
2023/03/22 12:13:13;;;;;;;4.30;4.00;;;23.30;58.80;;;;;;222375;1264;22555;-46
2023/03/22 12:18:25;;;;;;;4.00;3.70;;;23.40;58.90;;;;;;222235;1269;22667;-44
2023/03/22 12:23:33;;;;;;;4.10;3.70;;;23.40;58.60;;;;;;222239;1263;22525;-46
2023/03/22 12:28:40;;;;;;;4.10;3.80;;;23.50;58.70;;;;;;222380;1255;24520;-44
2023/03/22 12:33:48;;;;;;;4.00;3.80;;;23.50;58.30;;;;;;222221;1246;22544;-46
2023/03/22 12:38:58;;;;;;;4.00;3.70;;;23.50;58.30;;;;;;222202;1263;22602;-45
2023/03/22 12:44:16;;;;;;;3.50;3.30;;;23.60;57.80;;;;;;222475;1261;23880;-43
2023/03/22 12:49:35;;;;;;;3.40;3.20;;;23.50;57.60;;;;;;222424;1266;22988;-42
2023/03/22 12:54:40;;;;;;;5.00;3.50;;;23.50;57.80;;;;;;222363;1258;22520;-46
2023/03/22 12:59:49;;;;;;;4.30;3.90;;;23.50;57.60;;;;;;222307;1264;22587;-44
2023/03/22 13:05:02;;;;;;;4.00;3.60;;;23.40;58.20;;;;;;222268;1269;25215;-41
2023/03/22 13:10:28;;;;;;;3.30;3.10;;;23.50;57.70;;;;;;222212;1261;22521;-44
2023/03/22 13:15:35;;;;;;;3.60;3.30;;;23.50;57.40;;;;;;222341;1262;22521;-43
2023/03/22 13:21:04;;;;;;;;;;;23.50;57.20;;;;;;222320;1266;22506;-41
2023/03/22 13:26:14;;;;;;;3.60;3.30;;;23.40;57.30;;;;;;222405;1269;25377;-42
2023/03/22 13:31:36;;;;;;;3.80;3.50;;;23.40;57.30;;;;;;222385;1262;25327;-41
2023/03/22 13:36:48;;;;;;;3.30;3.00;;;23.40;57.30;;;;;;222362;1265;24314;-46
2023/03/22 13:42:17;;;;;;;3.20;3.00;;;23.40;57.20;;;;;;222313;1262;25442;-42
2023/03/22 13:48:00;;;;;;;3.70;3.40;;;23.40;57.20;;;;;;222398;1266;22639;-44
2023/03/22 13:53:13;;;;;;;3.90;3.50;;;23.30;57.70;;;;;;222482;1262;22511;-42
2023/03/22 13:58:34;;;;;;;3.50;3.30;;;23.30;57.30;;;;;;222144;1254;24256;-47
2023/03/22 14:03:46;;;;;;;3.20;3.00;;;23.40;57.30;;;;;;222292;1255;22507;-48
2023/03/22 14:08:56;;;;;;;5.30;3.40;;;23.30;58.30;;;;;;222463;1265;22587;-46
2023/03/22 14:14:29;;;;;;;3.60;3.30;;;23.30;57.50;;;;;;222404;1255;24212;-50
2023/03/22 14:19:34;;;;;;;3.20;3.00;;;23.30;57.40;;;;;;222306;1263;22515;-44
2023/03/22 14:24:40;;;;;;;3.00;2.80;;;23.40;57.50;;;;;;222365;1264;25271;-46
2023/03/22 14:29:46;;;;;;;3.20;3.00;;;23.30;58.20;;;;;;222426;1254;24207;-44
2023/03/22 14:35:09;;;;;;;3.30;3.10;;;23.30;57.60;;;;;;222618;1262;25369;-48
2023/03/22 14:40:28;;;;;;;2.70;2.50;;;23.20;57.70;;;;;;222511;1262;23922;-48
2023/03/22 14:45:32;;;;;;;3.10;2.90;;;23.20;57.60;;;;;;222272;1267;23884;-52
2023/03/22 14:50:44;;;;;;;3.10;2.90;;;23.30;57.50;;;;;;222294;1269;22651;-49
2023/03/22 14:55:49;;;;;;;3.20;3.00;;;23.30;57.30;;;;;;222147;1269;22515;-42
2023/03/22 15:00:52;;;;;;;2.80;2.60;;;23.30;57.40;;;;;;222300;1254;25277;-42
2023/03/22 15:05:54;;;;;;;3.30;3.00;;;23.20;57.70;;;;;;222154;1264;25369;-50
2023/03/22 15:11:01;;;;;;;3.70;2.80;;;23.10;58.00;;;;;;222132;1264;22618;-42
2023/03/22 15:16:06;;;;;;;3.20;2.90;;;23.10;57.60;;;;;;222064;1255;25214;-45
2023/03/22 15:21:09;;;;;;;3.30;3.10;;;23.10;57.20;;;;;;222195;1266;22639;-50
2023/03/22 15:26:29;;;;;;;3.50;2.80;;;23.10;56.70;;;;;;222469;1255;22634;-49
2023/03/22 15:31:41;;;;;;;3.70;2.50;;;23.10;56.60;;;;;;222391;1253;22550;-44
2023/03/22 15:36:45;;;;;;;;;;;23.10;56.90;;;;;;222372;1255;22733;-46
2023/03/22 15:42:04;;;;;;;5.30;3.10;;;22.90;56.60;;;;;;222298;1263;22555;-45
2023/03/22 15:47:15;;;;;;;3.10;2.80;;;23.00;59.30;;;;;;222268;1258;22527;-46
2023/03/22 15:52:24;;;;;;;2.80;2.50;;;23.10;59.90;;;;;;222415;1254;22507;-44
2023/03/22 15:57:53;;;;;;;4.10;2.90;;;23.10;59.90;;;;;;222345;1262;26655;-46
2023/03/22 16:02:59;;;;;;;4.60;2.50;;;23.10;59.00;;;;;;222332;1246;24063;-42
2023/03/22 16:08:04;;;;;;;5.80;2.60;;;23.00;58.20;;;;;;222351;1254;23847;-45
2023/03/22 16:13:19;;;;;;;5.50;2.90;;;23.00;56.40;;;;;;222731;1260;22523;-45
2023/03/22 16:18:22;;;;;;;5.00;2.40;;;22.90;56.80;;;;;;221988;1248;22517;-45
2023/03/22 16:23:26;;;;;;;5.30;2.80;;;23.10;58.60;;;;;;222197;1262;22544;-46
2023/03/22 16:28:29;;;;;;;3.60;2.50;;;23.30;58.10;;;;;;221791;1254;24232;-47
2023/03/22 16:33:32;;;;;;;7.60;2.50;;;23.30;58.60;;;;;;221922;1248;25463;-48
2023/03/22 16:38:35;;;;;;;5.30;2.80;;;23.20;58.40;;;;;;222203;1262;22542;-47
2023/03/22 16:43:38;;;;;;;7.90;2.60;;;23.30;58.10;;;;;;222464;1264;24241;-47
2023/03/22 16:48:42;;;;;;;4.10;2.50;;;23.40;58.50;;;;;;222136;1261;22534;-46
2023/03/22 16:53:47;;;;;;;3.90;2.50;;;23.40;60.20;;;;;;222215;1264;22659;-44
2023/03/22 16:58:50;;;;;;;2.80;2.60;;;23.40;59.70;;;;;;222468;1254;22784;-45
2023/03/22 17:03:53;;;;;;;5.10;2.50;;;23.30;58.80;;;;;;222558;1263;24689;-44
2023/03/22 17:08:55;;;;;;;7.70;2.70;;;23.20;58.50;;;;;;222362;1264;24019;-49
2023/03/22 17:13:59;;;;;;;4.30;2.20;;;23.20;58.50;;;;;;222367;1263;22577;-45
2023/03/22 17:19:02;;;;;;;4.90;2.50;;;23.10;58.50;;;;;;222533;1254;24251;-45
2023/03/22 17:24:06;;;;;;;4.00;2.70;;;23.20;57.10;;;;;;222520;1254;24352;-46
2023/03/22 17:29:09;;;;;;;3.90;2.60;;;23.10;56.70;;;;;;222471;1263;25308;-45
2023/03/22 17:34:12;;;;;;;4.10;2.60;;;23.10;56.80;;;;;;222226;1267;22517;-49
2023/03/22 17:39:15;;;;;;;9.30;2.70;;;23.00;57.00;;;;;;222315;1254;22689;-45
2023/03/22 17:44:19;;;;;;;4.50;2.60;;;23.00;56.30;;;;;;222377;1254;22635;-46
2023/03/22 17:49:22;;;;;;;5.60;2.90;;;23.10;56.10;;;;;;222427;1263;26573;-45
2023/03/22 17:54:28;;;;;;;7.20;2.80;;;23.10;56.20;;;;;;222437;1262;22517;-48
2023/03/22 17:59:33;;;;;;;8.60;3.50;;;23.10;56.50;;;;;;222285;1253;22534;-46
2023/03/22 18:04:36;;;;;;;6.90;2.80;;;23.10;57.30;;;;;;222060;1257;24366;-48
2023/03/22 18:09:40;;;;;;;7.50;3.10;;;23.10;56.90;;;;;;222181;1254;22602;-42
2023/03/22 18:14:43;;;;;;;4.70;3.00;;;23.00;57.20;;;;;;222364;1260;22517;-41
2023/03/22 18:19:47;;;;;;;15.00;3.80;;;22.90;56.50;;;;;;222208;1254;22554;-41
2023/03/22 18:24:59;;;;;;;10.00;3.90;;;22.90;56.00;;;;;;222106;1261;163886;-42
2023/03/22 18:30:04;;;;;;;15.40;4.00;;;22.80;55.70;;;;;;222326;1253;25278;-42
2023/03/22 18:35:09;;;;;;;13.60;4.50;;;22.80;55.50;;;;;;222092;1254;22658;-41
2023/03/22 18:40:15;;;;;;;18.30;3.70;;;22.80;55.30;;;;;;221902;1263;22544;-47
2023/03/22 18:45:19;;;;;;;20.00;4.80;;;22.80;55.50;;;;;;222028;1262;24191;-42
2023/03/22 18:50:23;;;;;;;7.70;4.00;;;22.80;56.00;;;;;;222141;1264;22511;-42
2023/03/22 18:55:28;;;;;;;16.50;4.30;;;22.80;56.00;;;;;;222388;1256;24246;-43
2023/03/22 19:00:33;;;;;;;9.60;4.20;;;22.80;56.20;;;;;;222076;1262;24169;-41
2023/03/22 19:05:37;;;;;;;23.70;6.80;;;22.90;56.20;;;;;;222433;1262;22608;-47
2023/03/22 19:10:42;;;;;;;20.50;6.50;;;23.00;58.90;;;;;;222263;1262;25231;-46
2023/03/22 19:15:47;;;;;;;19.10;6.10;;;23.10;60.10;;;;;;221621;1262;22534;-48
2023/03/22 19:20:53;;;;;;;21.30;5.90;;;23.10;59.40;;;;;;222163;1261;22527;-48
2023/03/22 19:25:59;;;;;;;18.40;6.30;;;23.00;59.20;;;;;;222193;1253;22527;-45
2023/03/22 19:31:05;;;;;;;16.90;5.60;;;23.00;59.50;;;;;;222122;1255;24226;-47
2023/03/22 19:36:09;;;;;;;16.70;6.40;;;23.00;59.90;;;;;;222254;1246;22475;-45
2023/03/22 19:41:12;;;;;;;25.50;6.20;;;23.00;59.70;;;;;;222403;1269;22641;-50
2023/03/22 19:46:16;;;;;;;12.00;5.60;;;23.00;59.70;;;;;;222040;1260;22507;-46
2023/03/22 19:51:22;;;;;;;18.00;5.50;;;23.00;59.50;;;;;;222374;1254;22974;-49
2023/03/22 19:56:26;;;;;;;17.70;6.60;;;22.90;59.70;;;;;;222499;1260;22525;-47
2023/03/22 20:01:33;;;;;;;12.70;5.90;;;22.90;59.80;;;;;;222310;1265;22621;-49
2023/03/22 20:06:37;;;;;;;15.80;5.30;;;22.80;59.30;;;;;;222453;1255;25066;-48
2023/03/22 20:11:42;;;;;;;18.10;6.10;;;22.90;59.40;;;;;;222474;1262;24234;-46
2023/03/22 20:16:49;;;;;;;22.80;5.00;;;22.90;59.40;;;;;;222606;1260;25516;-51
2023/03/22 20:21:56;;;;;;;19.00;5.30;;;22.90;59.20;;;;;;222496;1262;25556;-47
2023/03/22 20:27:06;;;;;;;13.40;5.90;;;22.80;59.10;;;;;;222312;1255;24351;-48
2023/03/22 20:32:10;;;;;;;15.30;5.40;;;22.90;59.00;;;;;;222451;1246;25413;-51
2023/03/22 20:37:20;;;;;;;13.80;5.70;;;22.90;59.20;;;;;;222334;1264;24243;-52
2023/03/22 20:42:25;;;;;;;14.40;6.00;;;22.80;58.80;;;;;;222372;1255;22517;-45
2023/03/22 20:47:29;;;;;;;10.90;5.50;;;22.80;59.40;;;;;;222324;1253;22532;-51
2023/03/22 20:52:35;;;;;;;12.70;5.60;;;22.90;58.90;;;;;;222605;1253;24365;-47
2023/03/22 20:57:39;;;;;;;13.70;5.00;;;22.90;58.80;;;;;;222144;1262;24236;-48
2023/03/22 21:02:42;;;;;;;18.70;6.20;;;22.90;58.60;;;;;;222510;1260;22511;-49
2023/03/22 21:07:47;;;;;;;14.20;6.00;;;22.90;59.10;;;;;;222359;1262;23660;-48
2023/03/22 21:12:50;;;;;;;25.70;6.40;;;22.80;59.60;;;;;;222437;1255;22526;-50
2023/03/22 21:17:54;;;;;;;22.70;6.10;;;22.80;60.10;;;;;;222448;1249;22521;-47
2023/03/22 21:22:57;;;;;;;12.10;5.70;;;22.80;59.90;;;;;;222316;1255;22515;-49
2023/03/22 21:27:59;;;;;;;15.70;6.50;;;22.70;59.50;;;;;;222492;1253;22531;-48
2023/03/22 21:33:02;;;;;;;13.90;7.40;;;22.60;59.80;;;;;;222149;1255;22511;-47
2023/03/22 21:38:08;;;;;;;19.80;6.30;;;22.60;60.70;;;;;;222051;1254;24187;-48
2023/03/22 21:43:11;;;;;;;18.80;7.30;;;22.60;60.60;;;;;;222308;1246;22530;-49
2023/03/22 21:48:14;;;;;;;17.90;6.90;;;22.60;61.90;;;;;;222090;1262;22639;-46
2023/03/22 21:53:18;;;;;;;17.30;5.70;;;22.60;61.60;;;;;;222453;1255;22581;-46
2023/03/22 21:58:21;;;;;;;14.40;6.70;;;22.60;61.40;;;;;;222248;1265;24211;-50
2023/03/22 22:03:24;;;;;;;15.20;5.80;;;22.70;63.60;;;;;;222776;1246;22520;-56
2023/03/22 22:08:27;;;;;;;13.80;6.40;;;22.60;63.00;;;;;;222207;1247;22518;-52
2023/03/22 22:13:30;;;;;;;16.80;6.60;;;22.70;65.50;;;;;;221976;1262;22651;-50
2023/03/22 22:18:35;;;;;;;15.40;6.70;;;22.60;64.00;;;;;;223609;1256;22534;-51
2023/03/22 22:23:44;;;;;;;13.70;6.10;;;22.60;64.70;;;;;;221998;1255;23922;-51
2023/03/22 22:28:48;;;;;;;12.80;6.00;;;22.50;64.30;;;;;;222302;1244;22947;-51
2023/03/22 22:33:53;;;;;;;16.10;6.70;;;22.50;65.00;;;;;;222371;1254;24289;-51
2023/03/22 22:38:57;;;;;;;12.30;6.10;;;22.40;64.30;;;;;;222018;1255;22577;-52
2023/03/22 22:44:00;;;;;;;15.80;6.00;;;22.40;64.50;;;;;;222235;1262;22520;-50
2023/03/22 22:49:03;;;;;;;14.60;7.00;;;22.40;64.50;;;;;;222207;1254;22742;-50
2023/03/22 22:54:06;;;;;;;12.90;6.00;;;22.40;64.10;;;;;;222478;1253;22616;-50
2023/03/22 22:59:08;;;;;;;14.50;6.40;;;22.40;63.80;;;;;;222169;1254;25140;-52
2023/03/22 23:04:11;;;;;;;13.40;6.40;;;22.30;63.30;;;;;;222084;1264;23908;-54
2023/03/22 23:09:19;;;;;;;12.60;7.20;;;22.30;63.30;;;;;;222176;1262;22682;-50
2023/03/22 23:14:29;;;;;;;11.20;5.90;;;22.30;63.10;;;;;;222068;1262;22572;-49
2023/03/22 23:19:36;;;;;;;11.70;6.10;;;22.30;63.60;;;;;;221992;1256;22526;-48
2023/03/22 23:24:42;;;;;;;11.60;6.10;;;22.30;62.90;;;;;;222055;1269;22536;-52
2023/03/22 23:29:45;;;;;;;12.60;6.10;;;22.30;62.90;;;;;;222061;1262;22807;-53
2023/03/22 23:34:51;;;;;;;8.60;5.50;;;22.30;62.80;;;;;;222266;1262;22536;-52
2023/03/22 23:39:54;;;;;;;8.20;4.90;;;22.20;62.90;;;;;;222175;1262;22520;-52
2023/03/22 23:44:57;;;;;;;10.40;5.50;;;22.20;62.80;;;;;;222235;1261;22870;-47
2023/03/22 23:49:59;;;;;;;10.00;5.30;;;22.20;62.70;;;;;;222292;1262;23949;-53
2023/03/22 23:55:04;;;;;;;9.30;5.50;;;22.20;62.60;;;;;;222152;1262;22482;-49
